Time;durP1;ratioP1;P1;durP2;ratioP2;P2;SDS_P1;SDS_P2;PMS_P1;PMS_P2;Temp;Humidity;BMP_temperature;BMP_pressure;BME280_temperature;BME280_humidity;BME280_pressure;Samples;Min_cycle;Max_cycle;Signal;HPM_P1;HPM_P2
2023/03/04 00:01:46;;;;;;;0.10;0.10;;;;;;;-1.87;77.22;98069.28;5012701;28;20060;-75
2023/03/04 00:04:12;;;;;;;0.10;0.10;;;;;;;-1.94;77.36;98076.63;5016046;28;20098;-74
2023/03/04 00:06:38;;;;;;;0.10;0.10;;;;;;;-1.96;77.41;98068.81;5015015;28;20502;-74
2023/03/04 00:09:05;;;;;;;0.10;0.10;;;;;;;-1.96;77.61;98060.78;5000060;28;20049;-74
2023/03/04 00:11:31;;;;;;;0.10;0.10;;;;;;;-1.97;77.82;98058.31;5013806;28;20068;-74
2023/03/04 00:13:57;;;;;;;0.10;0.10;;;;;;;-1.99;77.93;98063.94;5014438;28;20176;-75
2023/03/04 00:16:27;;;;;;;0.15;0.15;;;;;;;-1.93;78.05;98063.00;4979247;28;20107;-74
2023/03/04 00:18:55;;;;;;;0.10;0.10;;;;;;;-1.94;77.91;98052.53;5014431;28;20536;-74
2023/03/04 00:21:21;;;;;;;0.10;0.10;;;;;;;-2.18;78.02;98017.72;5020301;28;20041;-74
2023/03/04 00:23:48;;;;;;;0.20;0.20;;;;;;;-1.94;78.25;98039.13;5005404;28;20064;-74
2023/03/04 00:26:14;;;;;;;0.10;0.10;;;;;;;-1.93;78.24;98043.44;5012970;28;20148;-73
2023/03/04 00:28:42;;;;;;;0.10;0.10;;;;;;;-1.92;78.30;98035.13;4983397;28;20081;-74
2023/03/04 00:31:09;;;;;;;0.10;0.10;;;;;;;-1.87;78.10;98029.09;5016708;28;20441;-74
2023/03/04 00:33:36;;;;;;;0.10;0.10;;;;;;;-1.89;78.18;98025.81;5012881;28;20049;-75
2023/03/04 00:36:04;;;;;;;0.10;0.10;;;;;;;-1.87;78.21;98029.91;5018776;28;20357;-75
2023/03/04 00:38:31;;;;;;;0.10;0.10;;;;;;;-1.90;78.17;98030.34;5020514;28;20559;-74
2023/03/04 00:40:57;;;;;;;0.10;0.10;;;;;;;-1.93;78.28;98019.31;5014795;28;20049;-74
2023/03/04 00:43:23;;;;;;;0.10;0.10;;;;;;;-1.90;78.34;98022.31;5014807;28;20049;-74
2023/03/04 00:45:49;;;;;;;0.10;0.10;;;;;;;-1.91;78.31;98020.69;5015673;28;20443;-73
2023/03/04 00:48:15;;;;;;;0.10;0.10;;;;;;;-2.11;78.49;97993.50;4994850;28;20140;-74
2023/03/04 00:50:42;;;;;;;0.10;0.10;;;;;;;-1.94;78.57;98015.81;5012222;28;20049;-74
2023/03/04 00:53:10;;;;;;;0.10;0.10;;;;;;;-1.90;78.64;98011.59;4995524;28;20072;-73
2023/03/04 00:55:37;;;;;;;0.10;0.10;;;;;;;-1.94;78.52;97997.06;5009713;28;20042;-74
2023/03/04 00:58:03;;;;;;;0.10;0.10;;;;;;;-1.90;78.53;98003.56;5013571;28;20041;-73
2023/03/04 01:00:29;;;;;;;0.10;0.10;;;;;;;-2.00;78.75;98006.06;5009378;28;20057;-75
2023/03/04 01:02:56;;;;;;;0.10;0.10;;;;;;;-2.08;79.23;98001.06;5015496;28;20049;-74
2023/03/04 01:05:22;;;;;;;0.10;0.10;;;;;;;-2.13;79.56;98007.13;5016877;28;20048;-74
2023/03/04 01:07:48;;;;;;;0.10;0.10;;;;;;;-2.09;79.79;98005.63;4991154;28;20480;-74
2023/03/04 01:10:16;;;;;;;0.10;0.10;;;;;;;-2.11;79.72;98013.03;5012838;28;20046;-74
2023/03/04 01:12:42;;;;;;;0.13;0.13;;;;;;;-2.12;79.79;98008.75;5014944;28;20237;-74
2023/03/04 01:15:10;;;;;;;0.10;0.10;;;;;;;-2.14;79.92;98006.31;5010417;28;20142;-74
2023/03/04 01:17:36;;;;;;;0.13;0.13;;;;;;;-2.12;79.83;98006.06;5011739;28;20076;-74
2023/03/04 01:20:03;;;;;;;0.10;0.10;;;;;;;-2.06;79.73;98012.34;5013299;28;20079;-75
2023/03/04 01:22:29;;;;;;;0.10;0.10;;;;;;;-2.07;79.67;98005.34;5019046;28;20331;-74
2023/03/04 01:24:55;;;;;;;0.10;0.10;;;;;;;-2.04;79.64;98010.25;5016151;28;20141;-74
2023/03/04 01:27:23;;;;;;;0.13;0.13;;;;;;;-2.12;79.78;98006.06;5016142;28;20512;-74
2023/03/04 01:29:50;;;;;;;0.10;0.10;;;;;;;-2.16;80.03;97989.66;4984218;28;20153;-73
2023/03/04 01:32:16;;;;;;;0.10;0.10;;;;;;;-2.00;79.89;98000.69;5014559;28;20042;-74
2023/03/04 01:34:42;;;;;;;0.10;0.10;;;;;;;-1.99;79.73;98007.69;5016742;28;20516;-74
2023/03/04 01:37:08;;;;;;;0.15;0.15;;;;;;;-1.97;79.67;97997.53;5007241;28;20221;-74
2023/03/04 01:39:34;;;;;;;0.10;0.10;;;;;;;-1.99;79.72;97994.28;5012434;28;20050;-73
2023/03/04 01:42:00;;;;;;;0.20;0.20;;;;;;;-1.99;79.72;97999.66;5010933;28;20424;-74
2023/03/04 01:44:28;;;;;;;0.13;0.13;;;;;;;-2.01;80.08;97989.16;5011865;28;20050;-74
2023/03/04 01:46:55;;;;;;;0.10;0.10;;;;;;;-1.92;79.91;97986.13;5010250;28;20145;-75
2023/03/04 01:49:24;;;;;;;0.17;0.17;;;;;;;-1.96;79.78;97972.38;4997910;28;20064;-75
2023/03/04 01:51:52;;;;;;;0.10;0.10;;;;;;;-1.82;79.57;97985.50;5009326;28;20049;-74
2023/03/04 01:54:21;;;;;;;0.10;0.10;;;;;;;-1.76;79.56;97996.09;5011925;28;20532;-74
2023/03/04 01:56:49;;;;;;;0.10;0.10;;;;;;;-1.74;79.28;97987.78;5017651;28;20144;-74
2023/03/04 01:59:18;;;;;;;0.10;0.10;;;;;;;-1.77;79.21;97997.13;5006851;28;20053;-73
2023/03/04 02:01:48;;;;;;;0.10;0.10;;;;;;;-1.82;79.34;97985.50;5009726;28;20041;-74
2023/03/04 02:04:16;;;;;;;0.10;0.10;;;;;;;-1.92;79.46;97983.44;5013866;28;20136;-73
2023/03/04 02:06:43;;;;;;;0.20;0.17;;;;;;;-1.96;79.64;97972.38;5008244;28;20456;-74
2023/03/04 02:09:10;;;;;;;0.10;0.10;;;;;;;-1.97;79.80;97975.28;5015597;28;20100;-73
2023/03/04 02:11:37;;;;;;;0.10;0.10;;;;;;;-1.96;79.99;97963.50;4985371;28;20061;-73
2023/03/04 02:14:04;;;;;;;0.10;0.10;;;;;;;-1.96;79.92;97961.66;5011823;28;20049;-73
2023/03/04 02:16:30;;;;;;;0.20;0.20;;;;;;;-1.94;79.90;97958.75;5009007;28;20057;-73
2023/03/04 02:18:59;;;;;;;0.10;0.10;;;;;;;-2.02;79.84;97950.03;5008412;28;20058;-75
2023/03/04 02:21:28;;;;;;;0.10;0.10;;;;;;;-1.98;79.86;97954.91;5019987;28;20741;-73
2023/03/04 02:24:02;;;;;;;0.17;0.17;;;;;;;-2.06;80.11;97948.06;5016750;28;20069;-74
2023/03/04 02:26:31;;;;;;;0.10;0.10;;;;;;;-2.09;80.15;97945.88;5006286;28;20057;-74
2023/03/04 02:28:59;;;;;;;0.10;0.10;;;;;;;-2.14;80.25;97942.03;4985781;28;20049;-74
2023/03/04 02:31:28;;;;;;;0.10;0.10;;;;;;;-2.12;80.15;97941.78;5010792;28;20167;-74
2023/03/04 02:33:57;;;;;;;0.10;0.10;;;;;;;-2.14;80.29;97933.19;5019573;28;20349;-74
2023/03/04 02:36:24;;;;;;;0.10;0.10;;;;;;;-2.27;80.47;97926.22;5021671;28;20068;-73
2023/03/04 02:38:51;;;;;;;0.10;0.10;;;;;;;-2.33;81.00;97928.00;5004261;28;20052;-73
2023/03/04 02:41:22;;;;;;;0.10;0.10;;;;;;;-2.33;81.01;97928.00;5016976;28;20049;-74
2023/03/04 02:43:53;;;;;;;0.10;0.10;;;;;;;-2.35;81.18;97919.38;4998573;28;20132;-74
2023/03/04 02:46:20;;;;;;;0.10;0.10;;;;;;;-2.39;81.47;97912.88;4998639;28;20092;-73
2023/03/04 02:48:46;;;;;;;0.10;0.10;;;;;;;-2.37;81.43;97900.06;4995287;28;20156;-75
2023/03/04 02:51:13;;;;;;;0.10;0.10;;;;;;;-2.42;81.44;97907.97;5013695;28;20045;-74
2023/03/04 02:53:39;;;;;;;0.10;0.10;;;;;;;-2.49;81.77;97904.63;4995943;28;20045;-74
2023/03/04 02:56:06;;;;;;;0.10;0.10;;;;;;;-2.52;81.83;97903.22;5019712;28;20591;-74
2023/03/04 02:58:37;;;;;;;0.10;0.10;;;;;;;-2.54;81.95;97888.47;4999812;28;20041;-74
2023/03/04 03:01:05;;;;;;;0.10;0.10;;;;;;;-2.55;82.27;97901.03;4999609;28;20049;-74
2023/03/04 03:03:32;;;;;;;0.17;0.17;;;;;;;-2.55;82.26;97889.53;5008350;28;20119;-73
2023/03/04 03:05:58;;;;;;;0.10;0.10;;;;;;;-2.57;82.35;97893.25;5021759;28;20140;-74
2023/03/04 03:08:25;;;;;;;0.10;0.10;;;;;;;-2.51;82.29;97886.13;5011419;28;20065;-74
2023/03/04 03:10:53;;;;;;;0.10;0.10;;;;;;;-2.44;82.24;97884.13;5015133;28;20132;-74
2023/03/04 03:13:19;;;;;;;0.10;0.10;;;;;;;-2.42;82.22;97884.72;4978967;28;20107;-73
2023/03/04 03:15:45;;;;;;;0.10;0.10;;;;;;;-2.47;82.10;97884.63;5017981;28;20136;-74
2023/03/04 03:18:13;;;;;;;0.10;0.10;;;;;;;-2.58;82.53;97880.91;4993680;28;20045;-73
2023/03/04 03:20:41;;;;;;;0.10;0.10;;;;;;;-2.58;82.42;97877.44;5017853;28;20061;-73
2023/03/04 03:23:07;;;;;;;0.10;0.10;;;;;;;-2.62;82.77;97876.28;5016927;28;20054;-74
2023/03/04 03:25:34;;;;;;;0.17;0.17;;;;;;;-2.62;82.77;97882.44;5023348;28;20049;-74
2023/03/04 03:28:00;;;;;;;0.10;0.10;;;;;;;-2.69;83.05;97875.56;5008735;28;20050;-74
2023/03/04 03:30:27;;;;;;;0.10;0.10;;;;;;;-2.68;83.37;97875.34;5011254;28;20104;-74
2023/03/04 03:32:53;;;;;;;0.20;0.20;;;;;;;-2.62;83.28;97874.41;5010786;28;20100;-73
2023/03/04 03:35:21;;;;;;;0.10;0.10;;;;;;;-2.63;83.34;97867.41;5013985;28;20107;-73
2023/03/04 03:37:47;;;;;;;0.10;0.10;;;;;;;-2.69;83.40;97856.84;5012550;28;20377;-74
2023/03/04 03:40:14;;;;;;;0.10;0.10;;;;;;;-2.78;83.62;97859.91;4984203;28;20491;-74
2023/03/04 03:42:40;;;;;;;0.10;0.10;;;;;;;-2.76;84.09;97856.97;5007448;28;20575;-74
2023/03/04 03:45:07;;;;;;;0.10;0.10;;;;;;;-2.71;83.84;97865.13;5012244;28;20115;-74
2023/03/04 03:47:33;;;;;;;0.20;0.20;;;;;;;-2.75;83.95;97853.25;5021851;28;20061;-74
2023/03/04 03:49:59;;;;;;;0.10;0.10;;;;;;;-2.69;83.86;97852.31;5017254;28;20472;-74
2023/03/04 03:52:27;;;;;;;0.10;0.10;;;;;;;-2.71;84.00;97855.22;5017053;28;20424;-73
2023/03/04 03:54:53;;;;;;;0.10;0.10;;;;;;;-2.78;83.68;97851.88;5011797;28;20099;-74
2023/03/04 03:57:19;;;;;;;0.10;0.10;;;;;;;-2.81;84.18;97847.00;4996238;28;20059;-74
2023/03/04 03:59:45;;;;;;;0.10;0.10;;;;;;;-2.85;84.38;97856.53;4997154;28;20057;-74
2023/03/04 04:02:11;;;;;;;0.17;0.17;;;;;;;-2.99;84.51;97840.72;5020901;28;20494;-74
2023/03/04 04:04:37;;;;;;;0.10;0.10;;;;;;;-2.98;84.72;97838.88;5013486;28;20456;-74
2023/03/04 04:07:03;;;;;;;0.20;0.20;;;;;;;-2.97;85.22;97828.97;5017108;28;20686;-73
2023/03/04 04:09:30;;;;;;;0.10;0.10;;;;;;;-2.97;85.25;97832.47;5018101;28;20707;-74
2023/03/04 04:11:57;;;;;;;0.10;0.10;;;;;;;-2.97;85.34;97821.78;5014603;28;20057;-73
2023/03/04 04:14:23;;;;;;;0.10;0.10;;;;;;;-2.92;85.33;97821.88;5021261;28;20469;-74
2023/03/04 04:16:49;;;;;;;0.20;0.20;;;;;;;-2.92;85.38;97813.84;5012295;28;20045;-74
2023/03/04 04:19:17;;;;;;;0.10;0.10;;;;;;;-2.88;85.24;97807.00;5020919;28;20073;-74
2023/03/04 04:21:44;;;;;;;0.10;0.10;;;;;;;-2.83;85.27;97805.47;5001085;28;20050;-74
2023/03/04 04:24:10;;;;;;;0.10;0.10;;;;;;;-2.82;85.11;97799.06;5015220;28;20059;-74
2023/03/04 04:26:38;;;;;;;0.20;0.20;;;;;;;-2.76;84.85;97812.31;5019921;28;20512;-74
2023/03/04 04:29:04;;;;;;;0.10;0.10;;;;;;;-2.80;84.43;97805.00;5016910;28;20143;-74
2023/03/04 04:31:30;;;;;;;0.10;0.10;;;;;;;-2.90;84.24;97800.25;5018764;28;20049;-73
2023/03/04 04:33:56;;;;;;;0.10;0.10;;;;;;;-2.97;84.46;97803.06;5056702;28;20045;-73
2023/03/04 04:36:22;;;;;;;0.10;0.10;;;;;;;-3.02;84.87;97786.91;5014976;28;20046;-74
2023/03/04 04:38:49;;;;;;;0.10;0.10;;;;;;;-2.98;85.02;97790.72;4996983;28;20088;-74
2023/03/04 04:41:20;;;;;;;0.10;0.10;;;;;;;-2.90;85.03;97789.56;5012134;28;20077;-75
2023/03/04 04:43:47;;;;;;;0.17;0.17;;;;;;;-2.84;85.03;97788.59;5009499;28;20087;-74
2023/03/04 04:46:13;;;;;;;;;;;;;;;-2.75;85.00;97803.25;5017865;28;20069;-74
2023/03/04 04:48:40;;;;;;;0.20;0.20;;;;;;;-2.73;84.55;97795.00;5006402;28;20348;-74
2023/03/04 04:51:06;;;;;;;0.10;0.10;;;;;;;-2.82;84.65;97777.66;5017205;28;20050;-74
2023/03/04 04:53:33;;;;;;;0.10;0.10;;;;;;;-2.63;84.57;97803.19;5012678;28;20064;-76
2023/03/04 04:55:59;;;;;;;0.10;0.10;;;;;;;-2.60;84.71;97801.91;5015420;28;20053;-75
2023/03/04 04:58:25;;;;;;;0.10;0.10;;;;;;;-2.71;83.93;97776.84;5017509;28;20057;-74
2023/03/04 05:00:55;;;;;;;0.10;0.10;;;;;;;-2.56;83.94;97800.38;5014795;28;20052;-75
2023/03/04 05:03:22;;;;;;;0.10;0.10;;;;;;;-2.54;83.64;97803.63;5015092;28;20046;-75
2023/03/04 05:05:48;;;;;;;0.10;0.10;;;;;;;-2.60;83.47;97794.69;5017521;28;20045;-75
2023/03/04 05:08:14;;;;;;;0.20;0.20;;;;;;;-2.64;83.60;97806.13;5014735;28;20076;-74
2023/03/04 05:10:40;;;;;;;0.10;0.10;;;;;;;-2.73;83.81;97787.75;4995212;28;20073;-74
2023/03/04 05:13:06;;;;;;;0.10;0.10;;;;;;;-2.54;83.87;97813.53;5012382;28;20041;-74
2023/03/04 05:15:32;;;;;;;0.10;0.10;;;;;;;-2.53;83.55;97791.88;5013753;28;20056;-74
2023/03/04 05:17:59;;;;;;;0.10;0.10;;;;;;;-2.47;83.25;97792.78;5008763;28;20260;-74
2023/03/04 05:20:26;;;;;;;0.20;0.20;;;;;;;-2.57;83.20;97756.78;4669607;28;9999992;-75
2023/03/04 05:22:52;;;;;;;0.10;0.10;;;;;;;-2.22;82.80;97788.97;5001469;28;20475;-74
2023/03/04 05:25:18;;;;;;;0.10;0.10;;;;;;;-2.01;81.98;97779.41;5007125;28;20535;-74
2023/03/04 05:27:45;;;;;;;0.20;0.20;;;;;;;-1.80;81.54;97772.50;5018400;28;20038;-75
2023/03/04 05:30:12;;;;;;;0.13;0.13;;;;;;;-1.50;80.95;97783.97;5012791;28;20068;-75
2023/03/04 05:32:38;;;;;;;0.10;0.10;;;;;;;-1.31;80.11;97779.16;5019304;28;20038;-75
2023/03/04 05:35:06;;;;;;;0.10;0.10;;;;;;;-1.32;78.66;97775.63;5017841;28;20126;-75
2023/03/04 05:37:32;;;;;;;0.20;0.20;;;;;;;-1.36;78.43;97779.06;5014743;28;20151;-75
2023/03/04 05:39:58;;;;;;;0.10;0.10;;;;;;;-1.38;78.45;97771.28;5006005;28;20140;-75
2023/03/04 05:42:24;;;;;;;0.20;0.20;;;;;;;-1.29;78.38;97764.41;5015277;28;20619;-76
2023/03/04 05:44:50;;;;;;;0.20;0.20;;;;;;;-1.31;78.04;97753.13;5022148;28;20060;-75
2023/03/04 05:47:16;;;;;;;0.20;0.20;;;;;;;-1.11;77.90;97767.88;5012985;28;20309;-74
2023/03/04 05:49:43;;;;;;;0.20;0.20;;;;;;;-0.97;77.00;97760.28;5015078;28;20152;-75
2023/03/04 05:52:11;;;;;;;0.10;0.10;;;;;;;-0.97;76.55;97756.75;5019300;28;20041;-75
2023/03/04 05:54:37;;;;;;;0.20;0.20;;;;;;;-0.97;76.22;97762.13;5018338;28;20057;-75
2023/03/04 05:57:03;;;;;;;0.20;0.20;;;;;;;-0.97;76.08;97759.44;5023323;28;20075;-75
2023/03/04 05:59:29;;;;;;;0.10;0.10;;;;;;;-0.91;75.44;97761.16;5020294;28;20097;-75
2023/03/04 06:01:55;;;;;;;0.10;0.10;;;;;;;-1.06;75.25;97759.91;5018296;28;20418;-76
2023/03/04 06:04:22;;;;;;;0.10;0.10;;;;;;;-1.10;75.60;97755.28;5002073;28;20045;-75
2023/03/04 06:06:48;;;;;;;0.20;0.20;;;;;;;-1.15;75.51;97754.16;5007623;28;20046;-75
2023/03/04 06:09:15;;;;;;;0.17;0.17;;;;;;;-1.10;75.64;97766.00;5046189;28;20041;-75
2023/03/04 06:11:42;;;;;;;0.20;0.20;;;;;;;-1.31;75.79;97742.41;5015273;28;21295;-75
2023/03/04 06:14:08;;;;;;;0.20;0.20;;;;;;;-1.15;75.88;97745.28;4982013;28;20145;-76
2023/03/04 06:16:34;;;;;;;0.20;0.20;;;;;;;-1.00;75.22;97756.22;5018390;28;20143;-76
2023/03/04 06:19:00;;;;;;;0.20;0.20;;;;;;;-0.93;75.27;97757.91;5011960;28;20428;-75
2023/03/04 06:21:27;;;;;;;0.20;0.20;;;;;;;-0.76;75.14;97747.91;5019865;28;20053;-75
2023/03/04 06:23:53;;;;;;;0.15;0.15;;;;;;;-0.70;74.13;97742.59;5021743;28;20053;-75
2023/03/04 06:26:20;;;;;;;0.17;0.17;;;;;;;-0.75;74.38;97730.75;5022504;28;20048;-75
2023/03/04 06:28:46;;;;;;;0.25;0.25;;;;;;;-0.64;73.98;97736.22;5020418;28;20037;-75
2023/03/04 06:31:12;;;;;;;0.20;0.20;;;;;;;-0.65;73.87;97731.91;5024691;28;20168;-76
2023/03/04 06:33:38;;;;;;;0.20;0.20;;;;;;;-0.52;73.97;97741.47;5020610;28;20049;-75
2023/03/04 06:36:05;;;;;;;0.20;0.20;;;;;;;-0.51;72.83;97733.13;5015293;28;20054;-76
2023/03/04 06:38:31;;;;;;;0.20;0.20;;;;;;;-0.53;73.24;97727.22;5023359;28;20130;-75
2023/03/04 06:41:05;;;;;;;0.17;0.17;;;;;;;-0.47;73.23;97714.66;5015683;28;20081;-75
2023/03/04 06:43:33;;;;;;;0.20;0.20;;;;;;;-0.31;72.86;97721.00;5002098;28;20045;-75
2023/03/04 06:45:59;;;;;;;0.20;0.20;;;;;;;-0.28;72.30;97725.84;5002560;28;20048;-75
2023/03/04 06:48:25;;;;;;;0.15;0.15;;;;;;;-0.29;72.19;97718.84;5022358;28;20064;-75
2023/03/04 06:50:51;;;;;;;0.20;0.20;;;;;;;-0.24;72.00;97720.75;5019318;28;20180;-75
2023/03/04 06:53:17;;;;;;;0.10;0.10;;;;;;;-0.29;71.49;97705.44;5019795;28;20050;-75
2023/03/04 06:55:43;;;;;;;0.25;0.25;;;;;;;-0.22;71.39;97702.53;5019644;28;20048;-75
2023/03/04 06:58:09;;;;;;;0.20;0.20;;;;;;;-0.24;71.04;97700.09;5019550;28;20481;-75
2023/03/04 07:00:37;;;;;;;0.20;0.20;;;;;;;-0.32;70.96;97685.25;5022886;28;20456;-75
2023/03/04 07:03:03;;;;;;;0.20;0.20;;;;;;;-0.23;70.83;97699.03;5018663;28;20050;-75
2023/03/04 07:05:29;;;;;;;0.20;0.20;;;;;;;-0.11;70.76;97703.41;5002821;28;20045;-75
2023/03/04 07:07:55;;;;;;;0.20;0.20;;;;;;;-0.03;70.56;97693.00;5024047;28;20161;-75
2023/03/04 07:10:21;;;;;;;0.20;0.20;;;;;;;0.20;70.25;97692.91;5018911;28;20049;-76
2023/03/04 07:12:48;;;;;;;0.20;0.20;;;;;;;0.45;69.75;97689.56;5020610;28;20049;-76
2023/03/04 07:15:14;;;;;;;0.20;0.20;;;;;;;0.69;68.88;97689.13;5018309;28;20539;-76
2023/03/04 07:17:42;;;;;;;0.20;0.20;;;;;;;0.81;67.55;97684.34;5017758;28;20046;-75
2023/03/04 07:20:09;;;;;;;0.30;0.30;;;;;;;0.90;67.43;97670.41;5020684;28;20049;-75
2023/03/04 07:22:35;;;;;;;0.20;0.20;;;;;;;0.90;67.28;97673.09;5016051;28;20045;-76
2023/03/04 07:25:02;;;;;;;0.20;0.20;;;;;;;1.04;67.27;97658.06;4981317;28;20053;-75
2023/03/04 07:27:29;;;;;;;0.20;0.20;;;;;;;1.29;66.11;97655.72;5015506;28;20468;-75
2023/03/04 07:29:55;;;;;;;0.20;0.20;;;;;;;1.30;65.88;97662.72;5019304;28;20056;-75
2023/03/04 07:32:21;;;;;;;0.20;0.20;;;;;;;1.42;65.42;97656.00;5019024;28;20153;-75
2023/03/04 07:34:48;;;;;;;0.10;0.10;;;;;;;1.66;64.50;97663.56;5012624;28;20547;-75
2023/03/04 07:37:14;;;;;;;0.20;0.20;;;;;;;1.49;64.36;97649.56;5012702;28;20096;-75
2023/03/04 07:39:41;;;;;;;0.20;0.20;;;;;;;1.15;65.13;97634.69;5020754;28;20041;-75
2023/03/04 07:42:07;;;;;;;0.15;0.15;;;;;;;0.93;66.33;97648.34;5014629;28;20050;-75
2023/03/04 07:44:38;;;;;;;0.10;0.10;;;;;;;0.77;67.60;97661.75;5011496;28;20144;-75
2023/03/04 07:47:04;;;;;;;0.10;0.10;;;;;;;0.68;68.63;97647.97;5020304;28;20069;-75
2023/03/04 07:49:30;;;;;;;0.20;0.20;;;;;;;0.88;68.94;97643.75;5003529;28;20505;-75
2023/03/04 07:52:02;;;;;;;0.20;0.20;;;;;;;0.99;68.83;97636.50;5017415;28;20057;-76
2023/03/04 07:54:28;;;;;;;0.20;0.20;;;;;;;1.18;68.16;97636.84;5021515;28;20046;-75
2023/03/04 07:56:55;;;;;;;0.20;0.20;;;;;;;1.26;67.78;97632.81;5013840;28;20130;-76
2023/03/04 07:59:22;;;;;;;0.20;0.20;;;;;;;1.36;67.28;97626.63;5024292;28;20596;-75
2023/03/04 08:01:48;;;;;;;0.20;0.20;;;;;;;1.23;66.89;97627.97;5019330;28;20049;-75
2023/03/04 08:04:14;;;;;;;0.20;0.20;;;;;;;0.96;67.38;97628.97;5011150;28;20141;-75
2023/03/04 08:06:41;;;;;;;0.20;0.20;;;;;;;0.71;68.22;97603.63;5022432;28;20042;-76
2023/03/04 08:09:12;;;;;;;0.10;0.10;;;;;;;0.80;68.28;97628.13;5009028;28;20040;-75
2023/03/04 08:11:38;;;;;;;0.20;0.20;;;;;;;0.74;68.57;97626.47;5009802;28;20037;-75
2023/03/04 08:14:05;;;;;;;0.17;0.17;;;;;;;0.78;68.64;97612.25;5013928;28;20674;-75
2023/03/04 08:16:31;;;;;;;0.10;0.10;;;;;;;0.70;69.10;97613.56;5021591;28;20086;-75
2023/03/04 08:19:00;;;;;;;0.20;0.20;;;;;;;0.72;69.77;97624.06;5010435;28;20072;-75
2023/03/04 08:21:27;;;;;;;0.20;0.20;;;;;;;0.87;69.67;97611.75;5018672;28;20160;-75
2023/03/04 08:23:54;;;;;;;0.20;0.20;;;;;;;0.88;69.67;97608.75;5017387;28;20057;-75
2023/03/04 08:26:24;;;;;;;0.20;0.20;;;;;;;0.99;69.98;97594.28;5009742;28;20077;-76
2023/03/04 08:28:52;;;;;;;0.20;0.20;;;;;;;1.16;69.57;97592.41;5013991;28;20451;-75
2023/03/04 08:31:18;;;;;;;0.10;0.10;;;;;;;1.21;69.35;97598.59;5016192;28;20057;-76
2023/03/04 08:33:45;;;;;;;0.20;0.20;;;;;;;1.36;69.19;97592.44;5009121;28;20041;-76
2023/03/04 08:36:13;;;;;;;0.20;0.20;;;;;;;1.62;69.05;97592.41;5009375;28;20140;-75
2023/03/04 08:38:39;;;;;;;0.10;0.10;;;;;;;1.93;68.38;97583.50;5017875;28;20148;-75
2023/03/04 08:41:06;;;;;;;0.20;0.20;;;;;;;1.88;67.22;97594.31;5012937;28;20049;-74
2023/03/04 08:43:33;;;;;;;0.20;0.20;;;;;;;1.55;67.88;97571.13;5011924;28;20111;-73
2023/03/04 08:46:00;;;;;;;0.20;0.20;;;;;;;1.42;68.39;97577.09;5012157;28;20052;-74
2023/03/04 08:48:26;;;;;;;0.10;0.10;;;;;;;1.23;68.84;97579.50;5007999;28;20061;-74
2023/03/04 08:50:53;;;;;;;0.15;0.15;;;;;;;1.16;68.98;97589.69;5011025;28;20287;-74
2023/03/04 08:53:20;;;;;;;0.10;0.10;;;;;;;0.93;68.20;97565.72;5013541;28;20141;-74
2023/03/04 08:55:46;;;;;;;0.20;0.20;;;;;;;0.96;68.41;97577.84;5016195;28;20179;-74
2023/03/04 08:58:13;;;;;;;0.20;0.20;;;;;;;1.07;68.79;97574.09;5018395;28;20060;-74
2023/03/04 09:00:43;;;;;;;0.20;0.20;;;;;;;1.11;67.74;97564.41;5012204;28;20191;-74
2023/03/04 09:03:11;;;;;;;0.20;0.20;;;;;;;1.26;67.37;97557.41;4993809;28;20165;-75
2023/03/04 09:05:37;;;;;;;0.20;0.20;;;;;;;1.47;66.69;97571.69;5022790;28;20033;-73
2023/03/04 09:08:04;;;;;;;0.10;0.10;;;;;;;1.53;65.83;97559.81;5008485;28;20140;-74
2023/03/04 09:10:30;;;;;;;0.20;0.20;;;;;;;1.36;65.72;97551.22;5012831;28;20508;-75
2023/03/04 09:12:57;;;;;;;0.20;0.20;;;;;;;1.35;66.18;97550.44;5012689;28;20054;-74
2023/03/04 09:15:23;;;;;;;0.20;0.20;;;;;;;1.27;67.02;97537.50;5008097;28;20520;-74
2023/03/04 09:17:51;;;;;;;0.20;0.20;;;;;;;1.43;67.94;97546.38;5011094;28;20056;-73
2023/03/04 09:20:19;;;;;;;0.30;0.30;;;;;;;1.64;68.03;97530.19;4989890;28;20064;-74
2023/03/04 09:22:47;;;;;;;0.30;0.30;;;;;;;2.75;66.90;97536.56;4998506;28;20042;-75
2023/03/04 09:25:14;;;;;;;0.30;0.30;;;;;;;3.36;63.44;97528.28;5016233;28;20072;-75
2023/03/04 09:27:40;;;;;;;0.25;0.25;;;;;;;3.43;63.43;97511.75;5020014;28;20053;-74
2023/03/04 09:30:08;;;;;;;0.20;0.20;;;;;;;3.24;62.39;97512.44;5016159;28;20558;-73
2023/03/04 09:32:34;;;;;;;0.20;0.20;;;;;;;2.68;63.70;97507.16;5017433;28;20105;-74
2023/03/04 09:35:02;;;;;;;0.20;0.20;;;;;;;2.35;65.17;97503.28;5014902;28;20057;-73
2023/03/04 09:37:29;;;;;;;0.10;0.10;;;;;;;2.12;66.14;97494.78;5018715;28;20045;-73
2023/03/04 09:39:55;;;;;;;0.10;0.10;;;;;;;2.04;66.61;97503.41;4997377;28;20096;-74
2023/03/04 09:42:25;;;;;;;0.10;0.10;;;;;;;2.02;66.68;97479.41;5016322;28;20045;-75
2023/03/04 09:44:53;;;;;;;0.10;0.10;;;;;;;2.01;67.01;97490.50;5012382;28;20128;-75
2023/03/04 09:47:22;;;;;;;0.15;0.15;;;;;;;1.82;66.25;97473.03;5012728;28;20471;-75
2023/03/04 09:49:55;;;;;;;0.10;0.10;;;;;;;1.62;66.30;97468.50;5008761;28;20115;-75
2023/03/04 09:52:36;;;;;;;0.20;0.20;;;;;;;1.52;67.20;97466.63;5013680;28;20061;-75
2023/03/04 09:55:14;;;;;;;0.10;0.10;;;;;;;1.45;67.16;97466.13;5017674;28;20148;-75
2023/03/04 09:57:45;;;;;;;;;;;;;;;1.37;67.26;97462.09;5015684;28;20562;-75
2023/03/04 10:00:18;;;;;;;0.10;0.10;;;;;;;1.17;67.34;97460.22;5021088;28;19976;-75
2023/03/04 10:03:04;;;;;;;0.10;0.10;;;;;;;1.02;67.98;97447.59;5020038;28;20054;-74
2023/03/04 10:05:33;;;;;;;0.10;0.10;;;;;;;1.16;67.39;97429.00;5014902;28;20195;-75
2023/03/04 10:08:13;;;;;;;0.15;0.15;;;;;;;1.32;67.18;97440.53;5014216;28;20042;-75
2023/03/04 10:10:42;;;;;;;0.10;0.10;;;;;;;1.38;66.83;97441.34;5012163;28;20061;-74
2023/03/04 10:13:15;;;;;;;0.20;0.20;;;;;;;1.42;65.91;97431.66;5014216;28;20140;-74
2023/03/04 10:15:45;;;;;;;0.20;0.20;;;;;;;1.65;65.03;97424.03;5015497;28;20581;-74
2023/03/04 10:18:18;;;;;;;0.20;0.20;;;;;;;1.67;63.93;97409.22;5011526;28;20049;-74
2023/03/04 10:20:52;;;;;;;0.20;0.20;;;;;;;1.79;63.41;97411.59;5017496;28;20049;-74
2023/03/04 10:23:23;;;;;;;0.20;0.20;;;;;;;1.94;63.30;97399.94;5023532;28;20045;-75
2023/03/04 10:25:52;;;;;;;0.20;0.20;;;;;;;2.20;62.83;97404.41;5017937;28;20613;-74
2023/03/04 10:28:23;;;;;;;0.20;0.20;;;;;;;2.08;62.64;97400.16;5019471;28;20057;-74
2023/03/04 10:30:55;;;;;;;0.13;0.13;;;;;;;1.93;62.61;97394.84;5009566;28;20070;-74
2023/03/04 10:33:24;;;;;;;0.10;0.10;;;;;;;1.77;62.85;97397.59;4999239;28;20483;-74
2023/03/04 10:35:59;;;;;;;0.20;0.20;;;;;;;1.87;62.77;97382.44;5027759;28;20059;-74
2023/03/04 10:38:30;;;;;;;0.20;0.20;;;;;;;1.96;62.77;97381.63;5002842;28;20139;-74
2023/03/04 10:40:57;;;;;;;0.20;0.20;;;;;;;2.26;61.79;97376.31;5012370;28;20053;-73
2023/03/04 10:43:23;;;;;;;;;;;;;;;2.48;60.54;97369.69;5022324;28;20050;-74
2023/03/04 10:45:54;;;;;;;0.20;0.20;;;;;;;2.68;60.24;97369.53;5025126;28;20248;-75
2023/03/04 10:48:22;;;;;;;0.10;0.10;;;;;;;2.60;60.17;97359.34;5022856;28;20041;-74
2023/03/04 10:50:49;;;;;;;0.20;0.20;;;;;;;2.28;61.31;97362.56;5015401;28;20056;-74
2023/03/04 10:53:32;;;;;;;0.20;0.20;;;;;;;2.18;62.00;97358.03;5013580;28;20065;-74
2023/03/04 10:55:58;;;;;;;0.20;0.20;;;;;;;2.04;62.41;97355.16;4669376;28;10000263;-74
2023/03/04 10:58:25;;;;;;;0.20;0.20;;;;;;;2.03;62.59;97351.66;5018695;28;20544;-74
2023/03/04 11:01:00;;;;;;;0.10;0.10;;;;;;;1.62;64.05;97339.19;5014571;28;20291;-74
2023/03/04 11:03:31;;;;;;;0.20;0.20;;;;;;;1.52;65.15;97340.03;5009171;28;20056;-75
2023/03/04 11:06:14;;;;;;;0.10;0.10;;;;;;;1.72;65.07;97342.94;5014644;28;20152;-74
2023/03/04 11:08:42;;;;;;;0.20;0.20;;;;;;;1.68;65.46;97351.56;5012222;28;20560;-74
2023/03/04 11:11:23;;;;;;;0.10;0.10;;;;;;;1.49;66.49;97332.50;5012552;28;20056;-74
2023/03/04 11:13:51;;;;;;;0.20;0.20;;;;;;;1.30;67.62;97337.69;5021377;28;20053;-74
2023/03/04 11:16:25;;;;;;;0.10;0.10;;;;;;;1.16;68.56;97323.19;5003090;28;20037;-75
2023/03/04 11:18:54;;;;;;;0.20;0.20;;;;;;;1.09;69.06;97316.22;5016974;28;20045;-73
2023/03/04 11:21:22;;;;;;;0.20;0.20;;;;;;;1.11;69.61;97324.03;5009641;28;20468;-75
2023/03/04 11:23:55;;;;;;;0.10;0.10;;;;;;;1.26;69.36;97320.47;5010468;28;20057;-75
2023/03/04 11:26:25;;;;;;;0.10;0.10;;;;;;;1.26;69.12;97305.16;5011769;28;20045;-74
2023/03/04 11:28:55;;;;;;;0.15;0.15;;;;;;;1.31;69.19;97304.31;5011284;28;20203;-73
2023/03/04 11:31:26;;;;;;;0.20;0.20;;;;;;;1.26;69.38;97296.25;5021267;28;20045;-74
2023/03/04 11:33:57;;;;;;;0.10;0.10;;;;;;;1.36;69.46;97296.22;5022326;28;20056;-75
2023/03/04 11:36:34;;;;;;;0.10;0.10;;;;;;;1.33;69.89;97290.56;5015758;28;20072;-75
2023/03/04 11:39:04;;;;;;;0.10;0.10;;;;;;;1.17;70.53;97285.25;5015091;28;20128;-75